»·PEaware :: WAT847 KSAN-KONT

WAT847 :: KSAN-KONT

FLIGHT INFORMATION

Flight Status: Arrived
Operator:
Walker Air Transport
More flights by this operator :: More flights under this callsign
Pilot: Charlton B. (28558)
Aircraft: EMBRAER EMB-170/175
(E170)
More flights by this aircraft type
Origin: KSAN San Diego Intl-Lindbergh
United States
Destination: KONT Ontario Intl
United States
More flights between these airports :: More routes between these airports
Route: V186 TANNR HDF PETIS
File this flight plan on PilotEdge
Remarks:
Altitude:
(Current/Filed)
10,000ft
Speed:
(Current/Filed)
345kts
Departed: 31-Jan-23 05:29 PM
Arrived: 31-Jan-23 05:59 PM
Distance/Time
Traveled:
82nm/0:30
Distance/Time
To Go:
Arrived

Flight Plot

Page will automatically refresh every two minutes.


Map Options




Map Legend


Flown Route
Filed Route
Departure Airport
Arrival Airport
Navaid (VOR, NDB)
Fix

Horizontal Profiles

Position Reports

Time Latitude Longitude Heading Altitude Ground
Speed
31-Jan-23 16:54 32.733617 -117.197774 254 16ft 0kts
31-Jan-23 16:55 32.733617 -117.197774 254 16ft 0kts
31-Jan-23 16:56 32.733617 -117.197773 254 16ft 0kts
31-Jan-23 16:57 32.733617 -117.197773 254 16ft 0kts
31-Jan-23 16:58 32.733617 -117.197773 254 16ft 0kts
31-Jan-23 16:59 32.733617 -117.197773 254 16ft 0kts
31-Jan-23 17:00 32.733617 -117.197773 254 16ft 0kts
31-Jan-23 17:01 32.733617 -117.197773 254 16ft 0kts
31-Jan-23 17:02 32.733617 -117.197773 254 16ft 0kts
31-Jan-23 17:03 32.733610 -117.197487 307 16ft 2kts
31-Jan-23 17:04 32.733377 -117.197399 15 16ft 0kts
31-Jan-23 17:05 32.733377 -117.197399 15 16ft 0kts
31-Jan-23 17:06 32.733377 -117.197399 15 16ft 0kts
31-Jan-23 17:07 32.733377 -117.197399 15 16ft 0kts
31-Jan-23 17:08 32.733377 -117.197399 15 16ft 0kts
31-Jan-23 17:09 32.733377 -117.197399 15 16ft 0kts
31-Jan-23 17:10 32.733377 -117.197399 15 16ft 0kts
31-Jan-23 17:11 32.733377 -117.197399 15 16ft 0kts
31-Jan-23 17:12 32.733377 -117.197399 15 16ft 0kts
31-Jan-23 17:13 32.733377 -117.197399 15 16ft 0kts
31-Jan-23 17:14 32.733377 -117.197399 15 16ft 0kts
31-Jan-23 17:15 32.733377 -117.197399 15 16ft 0kts
31-Jan-23 17:16 32.733377 -117.197399 15 16ft 0kts
31-Jan-23 17:17 32.733377 -117.197399 15 16ft 0kts
31-Jan-23 17:18 32.733377 -117.197399 15 16ft 0kts
31-Jan-23 17:19 32.733377 -117.197399 15 16ft 0kts
31-Jan-23 17:20 32.733948 -117.196887 63 16ft 11kts
31-Jan-23 17:21 32.733320 -117.193095 106 19ft 12kts
31-Jan-23 17:22 32.732317 -117.188926 105 17ft 13kts
31-Jan-23 17:23 32.731270 -117.184491 105 16ft 13kts
31-Jan-23 17:24 32.730271 -117.180241 108 16ft 12kts
31-Jan-23 17:25 32.729407 -117.177146 81 20ft 7kts
31-Jan-23 17:26 32.729437 -117.177003 72 20ft 0kts
31-Jan-23 17:27 32.730320 -117.176404 286 22ft 8kts
31-Jan-23 17:28 32.741633 -117.211369 301 1173ft 179kts
31-Jan-23 17:29 32.769521 -117.263050 301 3612ft 196kts
31-Jan-23 17:30 32.804512 -117.324488 301 6472ft 245kts
31-Jan-23 17:31 32.865713 -117.348046 21 9761ft 262kts
31-Jan-23 17:32 32.940783 -117.319618 21 9993ft 289kts
31-Jan-23 17:33 33.026797 -117.286079 21 9993ft 320kts
31-Jan-23 17:34 33.116002 -117.259910 16 9980ft 318kts
31-Jan-23 17:35 33.204537 -117.236047 16 9983ft 317kts
31-Jan-23 17:36 33.292692 -117.212035 16 9985ft 316kts
31-Jan-23 17:37 33.383448 -117.187115 15 9974ft 320kts
31-Jan-23 17:38 33.476072 -117.165037 1 9996ft 338kts
31-Jan-23 17:39 33.570029 -117.170964 0 9983ft 312kts
31-Jan-23 17:40 33.662549 -117.177119 0 9993ft 325kts
31-Jan-23 17:41 33.755010 -117.183756 359 9992ft 325kts
31-Jan-23 17:42 33.838172 -117.228068 336 9976ft 291kts
31-Jan-23 17:43 33.904912 -117.282959 290 9887ft 299kts
31-Jan-23 17:44 33.921188 -117.380784 281 8202ft 266kts
31-Jan-23 17:45 33.933089 -117.464807 281 6997ft 232kts
31-Jan-23 17:46 33.944991 -117.548409 282 7012ft 249kts
31-Jan-23 17:47 33.957138 -117.630502 281 7007ft 239kts
31-Jan-23 17:48 33.971437 -117.712475 281 6331ft 245kts
31-Jan-23 17:49 33.986932 -117.788543 281 4447ft 217kts
31-Jan-23 17:50 34.000542 -117.852948 281 4089ft 194kts
31-Jan-23 17:51 34.035265 -117.889313 341 4004ft 177kts
31-Jan-23 17:52 34.061577 -117.856327 82 4013ft 174kts
31-Jan-23 17:53 34.057150 -117.797175 93 3810ft 171kts
31-Jan-23 17:54 34.056677 -117.744689 87 2986ft 144kts
31-Jan-23 17:55 34.056780 -117.700847 86 2272ft 125kts
31-Jan-23 17:56 34.056822 -117.658965 84 1604ft 121kts
31-Jan-23 17:57 34.056874 -117.618374 89 945ft 101kts
31-Jan-23 17:58 34.056889 -117.602532 89 930ft 11kts
31-Jan-23 17:59 34.057715 -117.595467 63 932ft 16kts
31-Jan-23 18:00 34.057948 -117.594563 84 933ft 0kts
31-Jan-23 18:01 34.057989 -117.590370 88 933ft 12kts
31-Jan-23 18:02 34.059138 -117.588238 76 938ft 6kts
31-Jan-23 18:03 34.059737 -117.587664 0 940ft 0kts
31-Jan-23 18:04 34.059737 -117.587664 0 940ft 0kts

Navigation Log

Ident Type
Flight plan parsing failed, navigation log unavailable